createdAt,value
2022-09-23T00:04:13.171Z,5.70
2022-09-23T00:09:13.102Z,5.72
2022-09-23T00:14:13.068Z,5.61
2022-09-23T00:19:13.024Z,5.59
2022-09-23T00:24:12.941Z,5.48
2022-09-23T00:29:12.857Z,5.43
2022-09-23T00:34:12.813Z,5.21
2022-09-23T00:39:12.774Z,5.15
2022-09-23T00:44:12.698Z,5.06
2022-09-23T00:49:12.621Z,4.98
2022-09-23T00:54:12.572Z,4.94
2022-09-23T00:59:12.499Z,4.93
2022-09-23T01:04:12.458Z,4.91
2022-09-23T01:09:12.380Z,4.83
2022-09-23T01:14:12.321Z,4.74
2022-09-23T01:19:12.269Z,4.75
2022-09-23T01:24:12.220Z,4.69
2022-09-23T01:29:12.150Z,4.66
2022-09-23T01:34:12.089Z,4.69
2022-09-23T01:39:12.045Z,4.69
2022-09-23T01:44:11.949Z,4.64
2022-09-23T01:49:11.893Z,4.43
2022-09-23T01:54:11.842Z,4.43
2022-09-23T01:59:11.771Z,4.38
2022-09-23T02:04:11.702Z,4.39
2022-09-23T02:09:11.649Z,4.35
2022-09-23T02:14:11.589Z,4.28
2022-09-23T02:19:11.531Z,4.30
2022-09-23T02:24:11.474Z,4.27
2022-09-23T02:29:11.403Z,4.24
2022-09-23T02:34:11.353Z,4.16
2022-09-23T02:39:11.272Z,4.08
2022-09-23T02:44:11.325Z,4.08
2022-09-23T02:49:11.163Z,4.00
2022-09-23T02:54:11.105Z,3.98
2022-09-23T02:59:11.041Z,3.98
2022-09-23T03:04:11.023Z,3.98
2022-09-23T03:09:10.920Z,4.00
2022-09-23T03:14:10.873Z,3.98
2022-09-23T03:19:10.805Z,3.91
2022-09-23T03:24:10.741Z,3.84
2022-09-23T03:29:10.686Z,3.78
2022-09-23T03:34:10.630Z,3.73
2022-09-23T03:39:10.541Z,3.66
2022-09-23T03:44:10.508Z,3.56
2022-09-23T03:49:10.451Z,3.52
2022-09-23T03:54:10.433Z,3.46
2022-09-23T03:59:10.337Z,3.48
2022-09-23T04:04:10.261Z,3.45
2022-09-23T04:09:10.189Z,3.42
2022-09-23T04:14:10.144Z,3.37
2022-09-23T04:19:11.683Z,3.33
2022-09-23T04:24:10.008Z,3.32
2022-09-23T04:29:09.972Z,3.23
2022-09-23T04:34:09.899Z,3.11
2022-09-23T04:39:09.927Z,3.07
2022-09-23T04:44:09.791Z,3.00
2022-09-23T04:49:09.783Z,2.96
2022-09-23T04:54:09.710Z,2.94
2022-09-23T04:59:09.593Z,2.96
2022-09-23T05:04:09.522Z,2.96
2022-09-23T05:09:09.593Z,2.90
2022-09-23T05:14:09.397Z,2.89
2022-09-23T05:19:09.395Z,2.91
2022-09-23T05:24:09.269Z,3.00
2022-09-23T05:29:09.207Z,3.04
2022-09-23T05:34:09.156Z,3.07
2022-09-23T05:39:09.244Z,3.09
2022-09-23T05:44:09.027Z,3.17
2022-09-23T05:49:09.133Z,3.23
2022-09-23T05:54:08.997Z,3.27
2022-09-23T05:59:08.910Z,3.29
2022-09-23T06:04:08.933Z,3.42
2022-09-23T06:09:08.765Z,3.52
2022-09-23T06:14:08.670Z,3.66
2022-09-23T06:19:08.606Z,3.88
2022-09-23T06:24:08.650Z,4.05
2022-09-23T06:29:08.476Z,4.26
2022-09-23T06:34:12.367Z,4.74
2022-09-23T06:39:08.336Z,5.12
2022-09-23T06:44:08.373Z,5.58
2022-09-23T06:49:08.225Z,5.95
2022-09-23T06:54:08.232Z,6.42
2022-09-23T06:59:08.135Z,6.65
2022-09-23T07:04:08.171Z,6.78
2022-09-23T07:09:07.998Z,7.07
2022-09-23T07:14:07.959Z,7.42
2022-09-23T07:19:07.976Z,7.60
2022-09-23T07:24:07.844Z,7.76
2022-09-23T07:29:07.767Z,8.14
2022-09-23T07:34:07.707Z,8.32
2022-09-23T07:39:07.653Z,8.70
2022-09-23T07:44:07.589Z,9.01
2022-09-23T07:49:07.651Z,9.29
2022-09-23T07:54:07.511Z,9.63
2022-09-23T07:59:07.407Z,9.91
2022-09-23T08:04:07.309Z,10.17
2022-09-23T08:09:07.355Z,10.42
2022-09-23T08:14:07.186Z,10.67
2022-09-23T08:19:07.138Z,10.90
2022-09-23T08:24:07.123Z,11.19
2022-09-23T08:29:06.990Z,11.41
2022-09-23T08:34:06.979Z,11.61
2022-09-23T08:39:06.876Z,11.91
2022-09-23T08:44:06.854Z,12.21
2022-09-23T08:49:06.721Z,12.36
2022-09-23T08:54:06.752Z,12.46
2022-09-23T08:59:06.622Z,12.51
2022-09-23T09:04:09.431Z,12.63
2022-09-23T09:09:07.512Z,12.84
2022-09-23T09:14:06.432Z,13.32
2022-09-23T09:19:06.505Z,13.79
2022-09-23T09:24:06.394Z,14.00
2022-09-23T09:29:30.774Z,14.22
2022-09-23T09:34:07.183Z,14.51
2022-09-23T09:39:06.227Z,14.64
2022-09-23T09:44:06.142Z,14.93
2022-09-23T09:49:06.057Z,15.27
2022-09-23T09:54:05.883Z,15.63
2022-09-23T09:59:05.886Z,15.84
2022-09-23T10:04:05.792Z,15.69
2022-09-23T10:09:05.731Z,15.77
2022-09-23T10:14:05.610Z,15.91
2022-09-23T10:19:05.624Z,16.39
2022-09-23T10:24:05.505Z,16.55
2022-09-23T10:29:05.425Z,16.65
2022-09-23T10:34:05.380Z,16.84
2022-09-23T10:39:05.415Z,16.88
2022-09-23T10:44:05.247Z,16.87
2022-09-23T10:49:05.201Z,17.07
2022-09-23T10:54:05.146Z,16.99
2022-09-23T10:59:05.110Z,17.34
2022-09-23T11:04:05.107Z,17.72
2022-09-23T11:09:04.982Z,18.20
2022-09-23T11:14:04.993Z,18.45
2022-09-23T11:19:04.827Z,18.68
2022-09-23T11:24:04.778Z,18.27
2022-09-23T11:29:04.711Z,18.45
2022-09-23T11:34:04.644Z,18.54
2022-09-23T11:39:04.586Z,18.79
2022-09-23T11:44:04.518Z,18.79
2022-09-23T11:49:04.460Z,18.97
2022-09-23T11:54:04.413Z,18.97
2022-09-23T11:59:04.503Z,19.08
2022-09-23T12:04:15.707Z,18.91
2022-09-23T12:09:05.211Z,18.86
2022-09-23T12:14:04.159Z,18.75
2022-09-23T12:19:04.092Z,18.75
2022-09-23T12:24:04.051Z,18.96
2022-09-23T12:29:03.963Z,19.17
2022-09-23T12:34:03.945Z,18.96
2022-09-23T12:39:03.836Z,18.86
2022-09-23T12:44:03.778Z,18.94
2022-09-23T12:49:03.714Z,18.86
2022-09-23T12:54:03.674Z,19.09
2022-09-23T12:59:03.590Z,19.07
2022-09-23T13:04:03.574Z,18.97
2022-09-23T13:09:03.467Z,18.70
2022-09-23T13:14:03.472Z,18.58
2022-09-23T13:19:03.350Z,18.56
2022-09-23T13:24:03.285Z,18.49
2022-09-23T13:29:03.222Z,18.67
2022-09-23T13:34:03.221Z,18.71
2022-09-23T13:39:03.151Z,18.78
2022-09-23T13:44:03.153Z,18.81
2022-09-23T13:49:02.963Z,18.78
2022-09-23T13:54:03.048Z,18.82
2022-09-23T13:59:02.836Z,18.71
2022-09-23T14:04:02.859Z,18.79
2022-09-23T14:09:02.733Z,18.89
2022-09-23T14:14:02.726Z,18.79
2022-09-23T14:19:02.589Z,18.93
2022-09-23T14:24:02.585Z,19.12
2022-09-23T14:29:02.509Z,18.91
2022-09-23T14:34:02.467Z,18.86
2022-09-23T14:39:02.409Z,18.75
2022-09-23T14:44:02.417Z,18.76
2022-09-23T14:49:02.271Z,18.79
2022-09-23T14:54:02.207Z,18.91
2022-09-23T14:59:02.081Z,18.98
2022-09-23T15:04:02.033Z,18.94
2022-09-23T15:09:01.954Z,18.82
2022-09-23T15:14:19.593Z,18.70
2022-09-23T15:19:02.897Z,18.67
2022-09-23T15:24:01.844Z,18.76
2022-09-23T15:29:01.709Z,18.83
2022-09-23T15:34:01.643Z,18.79
2022-09-23T15:39:01.603Z,18.74
2022-09-23T15:44:01.580Z,18.56
2022-09-23T15:49:01.505Z,18.60
2022-09-23T15:54:01.397Z,18.56
2022-09-23T15:59:01.388Z,18.36
2022-09-23T16:04:01.360Z,18.15
2022-09-23T16:09:01.257Z,18.01
2022-09-23T16:14:01.136Z,17.94
2022-09-23T16:19:01.166Z,17.75
2022-09-23T16:24:01.014Z,17.59
2022-09-23T16:29:00.979Z,17.37
2022-09-23T16:34:00.937Z,17.10
2022-09-23T16:39:00.896Z,16.95
2022-09-23T16:44:00.803Z,16.69
2022-09-23T16:49:00.796Z,16.43
2022-09-23T16:54:00.650Z,16.00
2022-09-23T16:59:00.654Z,15.65
2022-09-23T17:04:00.511Z,15.23
2022-09-23T17:09:00.480Z,14.92
2022-09-23T17:14:00.434Z,14.45
2022-09-23T17:19:00.399Z,14.05
2022-09-23T17:24:00.352Z,13.63
2022-09-23T17:29:00.675Z,13.30
2022-09-23T17:34:00.153Z,13.04
2022-09-23T17:39:00.087Z,12.65
2022-09-23T17:44:00.035Z,12.41
2022-09-23T17:48:59.966Z,12.08
2022-09-23T17:53:59.887Z,11.87
2022-09-23T17:58:59.828Z,11.52
2022-09-23T18:03:59.813Z,11.38
2022-09-23T18:08:59.708Z,11.11
2022-09-23T18:13:59.780Z,10.93
2022-09-23T18:18:59.589Z,10.78
2022-09-23T18:24:15.695Z,10.57
2022-09-23T18:29:00.584Z,10.36
2022-09-23T18:33:59.383Z,10.10
2022-09-23T18:38:59.340Z,9.88
2022-09-23T18:43:59.274Z,9.78
2022-09-23T18:48:59.201Z,9.69
2022-09-23T18:53:59.146Z,9.60
2022-09-23T18:58:59.103Z,9.50
2022-09-23T19:03:59.043Z,9.33
2022-09-23T19:08:58.952Z,9.23
2022-09-23T19:13:58.882Z,9.15
2022-09-23T19:18:58.836Z,9.01
2022-09-23T19:23:58.762Z,8.92
2022-09-23T19:28:58.714Z,8.83
2022-09-23T19:33:58.614Z,8.71
2022-09-23T19:38:58.565Z,8.56
2022-09-23T19:43:58.485Z,8.46
2022-09-23T19:48:58.427Z,8.32
2022-09-23T19:53:58.345Z,8.23
2022-09-23T19:58:58.301Z,8.16
2022-09-23T20:03:58.226Z,8.04
2022-09-23T20:08:58.159Z,7.92
2022-09-23T20:13:58.087Z,7.84
2022-09-23T20:18:58.025Z,7.81
2022-09-23T20:23:57.960Z,7.80
2022-09-23T20:28:57.886Z,7.77
2022-09-23T20:33:57.876Z,7.68
2022-09-23T20:38:58.705Z,7.69
2022-09-23T20:43:57.706Z,7.60
2022-09-23T20:48:57.646Z,7.58
2022-09-23T20:53:57.619Z,7.57
2022-09-23T20:58:57.526Z,7.50
2022-09-23T21:03:57.459Z,7.43
2022-09-23T21:08:57.386Z,7.33
2022-09-23T21:13:57.337Z,7.31
2022-09-23T21:18:57.279Z,7.21
2022-09-23T21:24:11.630Z,7.24
2022-09-23T21:28:58.191Z,7.19
2022-09-23T21:33:57.100Z,7.15
2022-09-23T21:38:57.037Z,7.11
2022-09-23T21:43:56.958Z,7.10
2022-09-23T21:48:56.911Z,7.11
2022-09-23T21:53:56.901Z,7.08
2022-09-23T21:58:56.886Z,7.16
2022-09-23T22:03:56.812Z,7.04
2022-09-23T22:08:56.659Z,6.92
2022-09-23T22:13:56.632Z,6.99
2022-09-23T22:18:56.533Z,6.96
2022-09-23T22:23:56.449Z,6.93
2022-09-23T22:28:56.430Z,6.99
2022-09-23T22:33:56.357Z,7.01
2022-09-23T22:38:59.162Z,7.03
2022-09-23T22:43:56.188Z,7.13
2022-09-23T22:48:56.189Z,7.16
2022-09-23T22:53:56.089Z,7.24
2022-09-23T22:58:56.063Z,7.26
2022-09-23T23:03:56.034Z,7.26
2022-09-23T23:08:55.931Z,7.24
2022-09-23T23:13:55.819Z,7.18
2022-09-23T23:18:55.770Z,7.21
2022-09-23T23:23:55.700Z,7.19
2022-09-23T23:28:55.700Z,7.24
2022-09-23T23:33:55.577Z,7.21
2022-09-23T23:38:55.509Z,7.24
2022-09-23T23:43:55.482Z,7.28
2022-09-23T23:48:55.419Z,7.26
2022-09-23T23:53:55.322Z,7.28
2022-09-23T23:58:55.257Z,7.33
